Time;durP1;ratioP1;P1;durP2;ratioP2;P2;SDS_P1;SDS_P2;PMS_P1;PMS_P2;Temp;Humidity;BMP_temperature;BMP_pressure;BME280_temperature;BME280_humidity;BME280_pressure;Samples;Min_cycle;Max_cycle;Signal;HPM_P1;HPM_P2
2023/11/08 00:00:50;;;;;;;3.80;2.63;;;9.70;99.90;;;;;;5061816;28;20271;-67
2023/11/08 00:03:16;;;;;;;3.27;2.00;;;9.70;99.90;;;;;;5062565;28;20220;-68
2023/11/08 00:05:42;;;;;;;6.60;2.57;;;9.70;99.90;;;;;;5061993;28;20763;-67
2023/11/08 00:08:08;;;;;;;3.00;1.83;;;9.70;99.90;;;;;;5056142;28;20210;-68
2023/11/08 00:10:37;;;;;;;6.57;2.17;;;9.70;99.90;;;;;;5058444;28;20201;-67
2023/11/08 00:13:02;;;;;;;4.30;2.20;;;9.70;99.90;;;;;;5061792;28;20484;-67
2023/11/08 00:15:28;;;;;;;2.90;1.80;;;9.70;99.90;;;;;;5061835;28;20417;-67
2023/11/08 00:17:54;;;;;;;4.00;2.10;;;9.70;99.90;;;;;;5061618;28;20590;-68
2023/11/08 00:20:19;;;;;;;3.00;2.20;;;9.70;99.90;;;;;;5057148;28;20187;-68
2023/11/08 00:22:45;;;;;;;4.30;2.20;;;9.70;99.90;;;;;;5059983;28;20813;-67
2023/11/08 00:25:14;;;;;;;3.40;2.27;;;9.80;99.90;;;;;;5060807;28;20190;-68
2023/11/08 00:27:39;;;;;;;3.40;2.37;;;9.70;99.90;;;;;;5057664;28;20260;-68
2023/11/08 00:30:05;;;;;;;6.43;1.97;;;9.80;99.90;;;;;;5060466;28;20446;-67
2023/11/08 00:32:32;;;;;;;4.00;2.20;;;9.80;99.90;;;;;;5055541;28;20209;-68
2023/11/08 00:34:57;;;;;;;5.77;2.30;;;9.80;99.90;;;;;;5055974;28;20532;-67
2023/11/08 00:37:24;;;;;;;5.07;2.83;;;9.90;99.90;;;;;;5063174;28;20492;-68
2023/11/08 00:39:50;;;;;;;3.83;2.03;;;9.80;99.90;;;;;;5057728;28;20948;-67
2023/11/08 00:42:15;;;;;;;5.40;2.00;;;9.90;99.90;;;;;;5061407;28;20433;-68
2023/11/08 00:44:41;;;;;;;4.17;2.40;;;9.90;99.90;;;;;;5061360;28;20274;-68
2023/11/08 00:47:08;;;;;;;5.40;2.10;;;9.90;99.90;;;;;;5063933;28;20675;-68
2023/11/08 00:49:37;;;;;;;3.80;2.53;;;9.90;99.90;;;;;;5060484;28;20500;-67
2023/11/08 00:52:03;;;;;;;4.60;2.30;;;9.90;99.90;;;;;;5057499;28;20418;-67
2023/11/08 00:54:30;;;;;;;10.57;2.43;;;9.70;99.90;;;;;;5058060;28;20869;-67
2023/11/08 00:56:55;;;;;;;3.97;1.87;;;9.80;99.90;;;;;;5060587;28;20440;-67
2023/11/08 00:59:21;;;;;;;6.90;2.00;;;9.80;99.90;;;;;;5059429;28;20410;-67
2023/11/08 01:01:48;;;;;;;4.73;2.30;;;9.90;99.90;;;;;;5061828;28;20184;-68
2023/11/08 01:04:13;;;;;;;7.70;2.70;;;9.90;99.90;;;;;;5064069;28;20917;-68
2023/11/08 01:06:40;;;;;;;5.73;2.20;;;9.80;99.90;;;;;;5060510;28;20513;-68
2023/11/08 01:09:10;;;;;;;5.13;2.13;;;9.90;99.90;;;;;;5075890;28;20187;-68
2023/11/08 01:11:37;;;;;;;5.80;2.30;;;9.90;99.90;;;;;;5055795;28;20434;-68
2023/11/08 01:14:04;;;;;;;4.77;2.17;;;9.90;99.90;;;;;;5062764;28;20471;-68
2023/11/08 01:16:33;;;;;;;3.93;2.20;;;9.80;99.90;;;;;;5059940;28;20425;-67
2023/11/08 01:18:59;;;;;;;3.83;2.00;;;9.90;99.90;;;;;;5065390;28;20416;-67
2023/11/08 01:21:27;;;;;;;5.57;2.27;;;9.80;99.90;;;;;;5065370;28;20852;-67
2023/11/08 01:23:53;;;;;;;5.03;2.33;;;9.70;99.90;;;;;;5061004;28;20729;-68
2023/11/08 01:26:20;;;;;;;2.93;2.23;;;9.70;99.90;;;;;;5066715;28;20497;-67
2023/11/08 01:28:45;;;;;;;4.00;2.53;;;9.70;99.90;;;;;;5060670;28;20171;-67
2023/11/08 01:31:11;;;;;;;3.60;2.17;;;9.60;99.90;;;;;;5060330;28;20510;-67
2023/11/08 01:33:37;;;;;;;4.10;2.20;;;9.70;99.90;;;;;;5063594;28;20207;-67
2023/11/08 01:36:04;;;;;;;3.57;2.80;;;9.70;99.90;;;;;;5065438;28;20179;-67
2023/11/08 01:38:30;;;;;;;4.93;2.77;;;9.60;99.90;;;;;;5064582;28;20183;-67
2023/11/08 01:40:56;;;;;;;5.37;2.40;;;9.60;99.90;;;;;;5064671;28;20848;-67
2023/11/08 01:43:34;;;;;;;3.87;2.30;;;9.70;99.90;;;;;;5062498;28;20461;-67
2023/11/08 01:46:06;;;;;;;3.30;1.80;;;9.60;99.90;;;;;;5065008;28;20194;-67
2023/11/08 01:48:33;;;;;;;5.87;2.30;;;9.60;99.90;;;;;;5063607;28;20928;-67
2023/11/08 01:50:59;;;;;;;6.07;2.00;;;9.50;99.90;;;;;;5062810;28;20474;-67
2023/11/08 01:53:28;;;;;;;3.03;1.90;;;9.50;99.90;;;;;;5063380;28;20491;-67
2023/11/08 01:55:54;;;;;;;5.80;2.10;;;9.50;99.90;;;;;;5062387;28;20436;-67
2023/11/08 01:58:20;;;;;;;5.70;2.57;;;9.40;99.90;;;;;;5067256;28;20420;-67
2023/11/08 02:00:49;;;;;;;4.33;2.20;;;9.30;99.90;;;;;;5064313;28;20429;-67
2023/11/08 02:03:17;;;;;;;6.13;2.60;;;9.40;99.90;;;;;;5059907;28;20602;-67
2023/11/08 02:05:43;;;;;;;3.23;1.90;;;9.40;99.90;;;;;;5060072;28;20421;-67
2023/11/08 02:08:10;;;;;;;6.20;2.20;;;9.40;99.90;;;;;;5063415;28;20413;-67
2023/11/08 02:10:36;;;;;;;2.97;1.73;;;9.50;99.90;;;;;;5060605;28;20437;-67
2023/11/08 02:13:03;;;;;;;7.07;1.90;;;9.50;99.90;;;;;;5063064;28;20507;-67
2023/11/08 02:15:38;;;;;;;7.63;2.57;;;9.50;99.90;;;;;;5057661;28;20433;-67
2023/11/08 02:18:04;;;;;;;3.73;1.83;;;9.60;99.90;;;;;;5062648;28;20420;-67
2023/11/08 02:20:30;;;;;;;8.47;2.03;;;9.60;99.90;;;;;;5061714;28;20410;-67
2023/11/08 02:22:55;;;;;;;3.20;2.10;;;9.60;99.90;;;;;;5060603;28;20209;-68
2023/11/08 02:25:21;;;;;;;6.43;2.47;;;9.60;99.90;;;;;;5063193;28;20270;-68
2023/11/08 02:27:50;;;;;;;5.30;2.23;;;9.60;99.90;;;;;;5061628;28;20206;-68
2023/11/08 02:30:17;;;;;;;3.03;2.00;;;9.50;99.90;;;;;;5060867;28;20425;-67
2023/11/08 02:32:43;;;;;;;4.40;1.93;;;9.60;99.90;;;;;;5062341;28;20440;-68
2023/11/08 02:35:09;;;;;;;5.03;2.23;;;9.70;99.90;;;;;;5063816;28;20453;-67
2023/11/08 02:37:35;;;;;;;3.90;2.40;;;9.70;99.90;;;;;;5062066;28;20448;-67
2023/11/08 02:40:01;;;;;;;5.50;2.27;;;9.70;99.90;;;;;;5058251;28;20172;-68
2023/11/08 02:42:27;;;;;;;3.93;1.90;;;9.70;99.90;;;;;;5075754;28;20195;-67
2023/11/08 02:44:54;;;;;;;6.57;2.03;;;9.80;99.90;;;;;;5074672;28;20453;-68
2023/11/08 02:47:20;;;;;;;3.83;2.17;;;9.80;99.90;;;;;;5088512;28;20421;-68
2023/11/08 02:49:47;;;;;;;3.73;2.20;;;9.80;99.90;;;;;;5074323;28;20929;-67
2023/11/08 02:52:13;;;;;;;3.73;1.93;;;9.80;99.90;;;;;;5071006;28;20191;-68
2023/11/08 02:54:38;;;;;;;3.50;2.13;;;9.80;99.90;;;;;;5069920;28;20969;-68
2023/11/08 02:57:04;;;;;;;4.30;2.57;;;9.80;99.90;;;;;;5067679;28;20418;-68
2023/11/08 02:59:30;;;;;;;5.10;2.20;;;9.90;99.90;;;;;;5066732;28;20201;-68
2023/11/08 03:01:55;;;;;;;3.37;2.17;;;10.00;99.90;;;;;;5064074;28;20508;-67
2023/11/08 03:04:24;;;;;;;3.40;2.00;;;10.00;99.90;;;;;;5064526;28;20591;-68
2023/11/08 03:06:50;;;;;;;3.70;2.30;;;9.90;99.90;;;;;;5060683;28;21232;-67
2023/11/08 03:09:16;;;;;;;5.80;2.30;;;10.00;99.90;;;;;;5063133;28;21015;-67
2023/11/08 03:11:41;;;;;;;5.13;2.17;;;10.00;99.90;;;;;;5059909;28;20478;-68
2023/11/08 03:14:07;;;;;;;4.87;2.10;;;10.00;99.90;;;;;;5071698;28;20682;-67
2023/11/08 03:16:34;;;;;;;3.80;2.03;;;10.00;99.90;;;;;;5063747;28;20545;-67
2023/11/08 03:19:00;;;;;;;4.17;2.30;;;10.00;99.90;;;;;;5061354;28;20190;-68
2023/11/08 03:21:25;;;;;;;3.80;2.60;;;10.00;99.90;;;;;;5060050;28;20814;-67
2023/11/08 03:23:52;;;;;;;5.63;2.30;;;10.10;99.90;;;;;;5062526;28;20593;-68
2023/11/08 03:26:17;;;;;;;3.50;2.10;;;10.10;99.90;;;;;;5061745;28;20194;-67
2023/11/08 03:28:44;;;;;;;4.90;2.30;;;10.10;99.90;;;;;;5060791;28;21249;-67
2023/11/08 03:31:12;;;;;;;6.80;2.30;;;10.10;99.90;;;;;;5060066;28;20593;-68
2023/11/08 03:33:37;;;;;;;4.70;2.20;;;10.20;99.90;;;;;;5062385;28;20548;-68
2023/11/08 03:36:04;;;;;;;8.70;2.17;;;10.20;99.90;;;;;;5056339;28;20547;-68
2023/11/08 03:38:29;;;;;;;5.93;2.70;;;10.20;99.90;;;;;;5062506;28;20257;-68
2023/11/08 03:40:55;;;;;;;5.40;2.10;;;10.20;99.90;;;;;;5059949;28;20925;-67
2023/11/08 03:43:21;;;;;;;4.47;2.23;;;10.20;99.90;;;;;;5059810;28;20207;-68
2023/11/08 03:45:46;;;;;;;4.97;2.23;;;10.20;99.90;;;;;;5059723;28;20194;-67
2023/11/08 03:48:12;;;;;;;4.67;2.40;;;10.10;99.90;;;;;;5062321;28;20188;-67
2023/11/08 03:50:39;;;;;;;4.23;2.57;;;10.10;99.90;;;;;;5061904;28;20213;-68
2023/11/08 03:53:07;;;;;;;3.30;2.13;;;10.10;99.90;;;;;;5060392;28;20211;-68
2023/11/08 03:55:33;;;;;;;6.17;2.43;;;10.00;99.90;;;;;;5058792;28;20516;-67
2023/11/08 03:57:59;;;;;;;4.90;2.73;;;10.10;99.90;;;;;;5058225;28;20521;-67
2023/11/08 04:00:27;;;;;;;6.10;2.50;;;10.00;99.90;;;;;;5058353;28;20265;-67
2023/11/08 04:02:53;;;;;;;4.17;2.27;;;9.90;99.90;;;;;;5058106;28;21266;-67
2023/11/08 04:05:19;;;;;;;6.63;3.70;;;10.00;99.90;;;;;;5063278;28;20431;-67
2023/11/08 04:07:44;;;;;;;7.50;3.03;;;10.00;99.90;;;;;;5059092;28;20449;-67
2023/11/08 04:10:11;;;;;;;3.83;2.13;;;10.00;99.90;;;;;;5061860;28;20421;-67
2023/11/08 04:12:37;;;;;;;3.40;2.40;;;10.00;99.90;;;;;;5060126;28;20202;-67
2023/11/08 04:15:03;;;;;;;6.00;2.50;;;10.10;99.90;;;;;;5054239;28;20437;-67
2023/11/08 04:17:29;;;;;;;5.00;3.10;;;10.10;99.90;;;;;;5057473;28;20418;-68
2023/11/08 04:19:55;;;;;;;3.50;2.07;;;10.20;99.90;;;;;;5056697;28;20515;-68
2023/11/08 04:22:21;;;;;;;4.10;2.13;;;10.00;99.90;;;;;;5060744;28;20182;-67
2023/11/08 04:24:47;;;;;;;8.67;2.47;;;10.00;99.90;;;;;;5058640;28;20277;-67
2023/11/08 04:27:13;;;;;;;5.03;2.70;;;10.00;99.90;;;;;;5064530;28;21041;-67
2023/11/08 04:29:38;;;;;;;4.10;2.50;;;10.00;99.90;;;;;;5064306;28;20622;-67
2023/11/08 04:32:07;;;;;;;5.67;2.20;;;10.00;99.90;;;;;;5055681;28;20579;-67
2023/11/08 04:34:33;;;;;;;4.10;3.00;;;10.00;99.90;;;;;;5061471;28;20264;-67
2023/11/08 04:36:59;;;;;;;3.60;2.30;;;10.00;99.90;;;;;;5063590;28;20417;-68
2023/11/08 04:39:25;;;;;;;5.90;2.17;;;10.00;99.90;;;;;;5064555;28;20429;-68
2023/11/08 04:41:51;;;;;;;4.63;1.83;;;10.00;99.90;;;;;;5058114;28;20179;-69
2023/11/08 04:44:18;;;;;;;4.70;2.53;;;10.00;99.90;;;;;;5066628;28;20445;-66
2023/11/08 04:46:43;;;;;;;4.00;2.30;;;10.10;99.90;;;;;;5064422;28;20972;-68
2023/11/08 04:49:09;;;;;;;4.20;2.10;;;10.10;99.90;;;;;;5064553;28;20456;-67
2023/11/08 04:51:35;;;;;;;7.37;2.60;;;10.00;99.90;;;;;;5061590;28;20218;-67
2023/11/08 04:54:01;;;;;;;5.63;2.40;;;10.10;99.90;;;;;;5059309;28;20461;-66
2023/11/08 04:56:27;;;;;;;6.23;2.60;;;10.10;99.90;;;;;;5062753;28;20180;-67
2023/11/08 04:58:52;;;;;;;5.20;2.43;;;10.10;99.90;;;;;;5064065;28;20774;-67
2023/11/08 05:01:18;;;;;;;5.30;2.83;;;10.10;99.90;;;;;;5067405;28;20192;-67
2023/11/08 05:03:44;;;;;;;4.57;2.53;;;10.00;99.90;;;;;;5063906;28;20595;-67
2023/11/08 05:06:10;;;;;;;6.23;3.10;;;10.00;99.90;;;;;;5065090;28;20661;-67
2023/11/08 05:08:36;;;;;;;5.00;2.03;;;10.00;99.90;;;;;;5065012;28;20428;-67
2023/11/08 05:11:01;;;;;;;4.80;2.50;;;10.00;99.90;;;;;;5062745;28;20238;-66
2023/11/08 05:13:27;;;;;;;6.20;2.20;;;9.90;99.90;;;;;;5062880;28;20214;-66
2023/11/08 05:15:52;;;;;;;5.60;2.60;;;9.80;99.90;;;;;;5064681;28;20222;-67
2023/11/08 05:18:18;;;;;;;3.63;2.17;;;9.80;99.90;;;;;;5066544;28;20202;-67
2023/11/08 05:20:43;;;;;;;3.93;2.10;;;9.80;99.90;;;;;;5065776;28;20183;-67
2023/11/08 05:23:10;;;;;;;3.63;2.53;;;9.80;99.90;;;;;;5061834;28;20338;-67
2023/11/08 05:25:41;;;;;;;3.87;2.73;;;9.80;99.90;;;;;;5057701;28;20180;-67
2023/11/08 05:28:06;;;;;;;4.53;2.57;;;9.70;99.90;;;;;;5064780;28;20919;-67
2023/11/08 05:30:35;;;;;;;5.50;2.60;;;9.80;99.90;;;;;;5065444;28;20471;-67
2023/11/08 05:33:00;;;;;;;7.10;2.40;;;9.80;99.90;;;;;;5060762;28;20239;-67
2023/11/08 05:35:26;;;;;;;4.87;2.37;;;9.80;99.90;;;;;;5065015;28;20833;-66
2023/11/08 05:37:52;;;;;;;4.90;2.53;;;9.80;99.90;;;;;;5061075;28;20591;-67
2023/11/08 05:40:18;;;;;;;2.50;1.80;;;9.80;99.90;;;;;;5061792;28;20187;-67
2023/11/08 05:42:44;;;;;;;4.03;2.00;;;9.80;99.90;;;;;;5062637;28;20229;-67
2023/11/08 05:45:11;;;;;;;5.00;2.17;;;9.80;99.90;;;;;;5062590;28;20425;-68
2023/11/08 05:47:37;;;;;;;7.93;2.73;;;9.80;99.90;;;;;;5066257;28;20825;-67
2023/11/08 05:50:05;;;;;;;5.90;2.43;;;9.80;99.90;;;;;;5059482;28;20425;-67
2023/11/08 05:52:31;;;;;;;3.97;2.40;;;9.90;99.90;;;;;;5066350;28;20332;-67
2023/11/08 05:54:56;;;;;;;6.90;2.60;;;9.90;99.90;;;;;;5063155;28;20913;-67
2023/11/08 05:57:22;;;;;;;4.97;2.50;;;9.90;99.90;;;;;;5066673;28;20183;-67
2023/11/08 05:59:48;;;;;;;6.10;2.77;;;10.00;99.90;;;;;;5060985;28;20205;-67
2023/11/08 06:02:14;;;;;;;4.37;2.60;;;10.00;99.90;;;;;;5062767;28;20417;-67
2023/11/08 06:04:39;;;;;;;6.27;2.53;;;10.00;99.90;;;;;;5064725;28;20280;-67
2023/11/08 06:07:06;;;;;;;7.37;2.80;;;9.90;99.90;;;;;;5064168;28;20182;-67
2023/11/08 06:09:32;;;;;;;6.00;3.17;;;9.80;99.90;;;;;;5064689;28;20179;-67
2023/11/08 06:11:57;;;;;;;5.07;2.73;;;9.70;99.90;;;;;;5062452;28;20823;-67
2023/11/08 06:14:24;;;;;;;4.83;2.77;;;9.80;99.90;;;;;;5063884;28;20688;-67
2023/11/08 06:16:51;;;;;;;4.50;2.47;;;9.90;99.90;;;;;;5061426;28;20598;-68
2023/11/08 06:19:17;;;;;;;4.27;2.60;;;9.80;99.90;;;;;;5062562;28;20448;-67
2023/11/08 06:21:47;;;;;;;4.73;2.87;;;9.80;99.90;;;;;;5061482;28;20463;-68
2023/11/08 06:24:13;;;;;;;7.50;4.00;;;9.80;99.90;;;;;;5061326;28;20277;-67
2023/11/08 06:26:38;;;;;;;9.70;3.53;;;9.90;99.90;;;;;;5062873;28;20431;-67
2023/11/08 06:29:04;;;;;;;5.30;2.83;;;9.80;99.90;;;;;;5066637;28;20256;-66
2023/11/08 06:31:35;;;;;;;4.23;2.40;;;9.90;99.90;;;;;;5060131;28;20287;-67
2023/11/08 06:34:01;;;;;;;4.00;2.20;;;9.80;99.90;;;;;;5062156;28;20317;-67
2023/11/08 06:36:26;;;;;;;8.10;2.77;;;10.00;99.90;;;;;;5061897;28;20516;-67
2023/11/08 06:38:52;;;;;;;4.10;2.33;;;10.00;99.90;;;;;;5063405;28;20183;-67
2023/11/08 06:41:18;;;;;;;6.50;3.00;;;10.00;99.90;;;;;;5062223;28;20564;-67
2023/11/08 06:43:43;;;;;;;6.47;2.67;;;9.90;99.90;;;;;;5063205;28;20641;-67
2023/11/08 06:46:09;;;;;;;4.17;2.93;;;9.90;99.90;;;;;;5062199;28;20236;-67
2023/11/08 06:48:34;;;;;;;5.37;2.63;;;9.80;99.90;;;;;;5062098;28;20187;-67
2023/11/08 06:51:00;;;;;;;8.47;2.50;;;9.90;99.90;;;;;;5061668;28;20272;-67
2023/11/08 06:53:26;;;;;;;5.80;2.60;;;9.90;99.90;;;;;;5062849;28;20210;-67
2023/11/08 06:55:52;;;;;;;5.80;2.67;;;10.00;99.90;;;;;;5059293;28;20430;-67
2023/11/08 06:58:17;;;;;;;4.40;2.77;;;10.00;99.90;;;;;;5057987;28;20171;-67
2023/11/08 07:00:43;;;;;;;3.40;2.40;;;9.90;99.90;;;;;;5065316;28;20175;-67
2023/11/08 07:03:09;;;;;;;4.90;2.60;;;10.00;99.90;;;;;;5057368;28;20219;-67
2023/11/08 07:05:35;;;;;;;6.10;3.27;;;10.00;99.90;;;;;;5058490;28;20722;-67
2023/11/08 07:08:01;;;;;;;5.30;3.03;;;10.10;99.90;;;;;;5076842;28;20449;-67
2023/11/08 07:10:27;;;;;;;5.23;3.00;;;10.10;99.90;;;;;;5061772;28;20176;-67
2023/11/08 07:12:53;;;;;;;6.00;2.50;;;10.10;99.90;;;;;;5061270;28;20444;-67
2023/11/08 07:15:19;;;;;;;6.80;2.57;;;10.10;99.90;;;;;;5061234;28;20176;-67
2023/11/08 07:17:45;;;;;;;6.80;2.87;;;10.10;99.90;;;;;;5064364;28;20172;-67
2023/11/08 07:20:11;;;;;;;5.93;2.50;;;10.10;99.90;;;;;;5061736;28;20409;-67
2023/11/08 07:22:37;;;;;;;4.90;2.30;;;10.20;99.90;;;;;;5059309;28;20438;-67
2023/11/08 07:25:03;;;;;;;5.93;2.77;;;10.10;99.90;;;;;;5058292;28;20439;-67
2023/11/08 07:27:30;;;;;;;4.33;2.33;;;10.10;99.90;;;;;;5065285;28;20685;-67
2023/11/08 07:29:55;;;;;;;7.30;2.47;;;10.10;99.90;;;;;;5060570;28;20425;-67
2023/11/08 07:32:21;;;;;;;8.33;2.83;;;10.20;99.90;;;;;;5058407;28;20488;-68
2023/11/08 07:34:47;;;;;;;4.13;2.30;;;10.20;99.90;;;;;;5061702;28;20260;-67
2023/11/08 07:37:15;;;;;;;9.70;2.77;;;10.20;99.90;;;;;;5058511;28;20179;-67
2023/11/08 07:39:41;;;;;;;10.30;3.03;;;10.30;99.90;;;;;;5064254;28;20182;-67
2023/11/08 07:42:07;;;;;;;4.50;2.70;;;10.30;99.90;;;;;;5061107;28;20431;-67
2023/11/08 07:44:33;;;;;;;5.00;2.47;;;10.30;99.90;;;;;;5064254;28;20183;-67
2023/11/08 07:46:59;;;;;;;6.60;2.80;;;10.40;99.90;;;;;;5062350;28;20657;-67
2023/11/08 07:49:24;;;;;;;4.47;2.73;;;10.50;99.90;;;;;;5064892;28;20409;-67
2023/11/08 07:51:51;;;;;;;3.73;2.60;;;10.50;99.90;;;;;;5061308;28;20194;-67
2023/11/08 07:54:17;;;;;;;5.80;2.67;;;10.60;99.90;;;;;;5060318;28;20621;-67
2023/11/08 07:56:43;;;;;;;5.53;2.43;;;10.70;99.90;;;;;;5059971;28;20793;-67
2023/11/08 07:59:09;;;;;;;4.33;2.23;;;10.70;99.90;;;;;;5063466;28;20417;-67
2023/11/08 08:01:34;;;;;;;5.20;2.50;;;10.70;99.90;;;;;;5063445;28;20637;-67
2023/11/08 08:04:00;;;;;;;3.57;2.47;;;10.70;99.90;;;;;;5056853;28;20461;-67
2023/11/08 08:06:26;;;;;;;6.53;3.10;;;10.70;99.90;;;;;;5062745;28;20187;-67
2023/11/08 08:08:51;;;;;;;5.40;2.60;;;10.60;99.90;;;;;;5063281;28;20186;-67
2023/11/08 08:11:17;;;;;;;10.77;2.80;;;10.60;99.90;;;;;;5054540;28;20187;-69
2023/11/08 08:13:45;;;;;;;4.17;2.20;;;10.70;99.90;;;;;;5058221;28;20253;-68
2023/11/08 08:16:12;;;;;;;6.47;3.83;;;10.70;99.90;;;;;;5061466;28;20425;-68
2023/11/08 08:18:37;;;;;;;5.20;2.27;;;10.80;99.90;;;;;;5063764;28;20470;-68
2023/11/08 08:21:04;;;;;;;4.70;2.43;;;10.80;99.90;;;;;;5062548;28;20463;-68
2023/11/08 08:23:29;;;;;;;4.20;2.40;;;10.80;99.90;;;;;;5061963;28;20207;-67
2023/11/08 08:25:55;;;;;;;6.03;2.40;;;10.80;99.90;;;;;;5058564;28;20414;-67
2023/11/08 08:28:21;;;;;;;4.20;2.60;;;10.70;99.90;;;;;;5063431;28;20214;-67
2023/11/08 08:30:46;;;;;;;3.60;2.20;;;10.70;99.90;;;;;;5057267;28;20190;-67
2023/11/08 08:33:12;;;;;;;5.60;2.20;;;10.70;99.90;;;;;;5059484;28;20471;-67
2023/11/08 08:35:38;;;;;;;3.43;2.10;;;10.70;99.90;;;;;;5063080;28;20663;-68
2023/11/08 08:38:04;;;;;;;6.00;2.17;;;10.80;99.90;;;;;;5058926;28;20672;-68
2023/11/08 08:40:33;;;;;;;9.13;2.37;;;10.80;99.90;;;;;;5063057;28;20410;-68
2023/11/08 08:42:58;;;;;;;3.57;2.20;;;10.70;99.90;;;;;;5063521;28;20687;-68
2023/11/08 08:45:24;;;;;;;8.43;3.50;;;10.80;99.90;;;;;;5058748;28;20401;-68
2023/11/08 08:47:52;;;;;;;3.23;2.00;;;10.90;99.90;;;;;;5059898;28;20257;-68
2023/11/08 08:50:18;;;;;;;6.30;2.83;;;10.90;99.90;;;;;;5059219;28;20722;-68
2023/11/08 08:52:45;;;;;;;4.70;1.93;;;10.90;99.90;;;;;;5065358;28;20477;-67
2023/11/08 08:55:13;;;;;;;5.57;2.20;;;11.10;99.90;;;;;;5063544;28;20377;-68
2023/11/08 08:57:45;;;;;;;3.90;2.30;;;11.10;99.90;;;;;;5067092;28;20421;-68
2023/11/08 09:00:12;;;;;;;5.37;2.37;;;11.10;99.90;;;;;;5066946;28;20445;-67
2023/11/08 09:02:37;;;;;;;6.20;2.67;;;11.00;99.90;;;;;;5066175;28;20466;-68
2023/11/08 09:05:05;;;;;;;8.33;3.20;;;11.10;99.90;;;;;;5066916;28;20451;-68
2023/11/08 09:07:31;;;;;;;4.63;2.60;;;11.00;99.90;;;;;;5069882;28;20550;-68
2023/11/08 09:09:57;;;;;;;4.20;2.27;;;11.10;99.90;;;;;;5069681;28;20677;-68
2023/11/08 09:12:23;;;;;;;3.50;2.10;;;11.10;99.90;;;;;;5061681;28;21383;-68
2023/11/08 09:14:52;;;;;;;3.80;2.30;;;11.10;99.90;;;;;;5067795;28;20464;-67
2023/11/08 09:17:19;;;;;;;9.80;2.53;;;11.10;99.90;;;;;;5066247;28;20445;-68
2023/11/08 09:19:45;;;;;;;3.30;2.70;;;11.10;99.90;;;;;;5068318;28;20409;-68
2023/11/08 09:22:11;;;;;;;5.40;2.27;;;11.20;99.90;;;;;;5065566;28;20402;-67
2023/11/08 09:24:37;;;;;;;3.50;2.57;;;11.20;99.90;;;;;;5059190;28;20179;-67
2023/11/08 09:27:03;;;;;;;6.50;2.73;;;11.30;99.90;;;;;;5066489;28;20823;-67
2023/11/08 09:29:29;;;;;;;6.80;2.50;;;11.30;99.90;;;;;;5065654;28;20179;-68
2023/11/08 09:31:56;;;;;;;3.97;2.43;;;11.40;99.90;;;;;;5063672;28;20289;-67
2023/11/08 09:34:22;;;;;;;5.50;2.60;;;11.40;99.90;;;;;;5065850;28;20923;-67
2023/11/08 09:36:49;;;;;;;5.20;2.73;;;11.40;99.90;;;;;;5065322;28;20923;-67
2023/11/08 09:39:16;;;;;;;4.87;2.43;;;11.30;99.90;;;;;;5065699;28;20990;-67
2023/11/08 09:41:43;;;;;;;5.03;2.57;;;11.20;99.90;;;;;;5067197;28;20438;-67
2023/11/08 09:44:11;;;;;;;4.90;2.33;;;11.00;99.90;;;;;;5063865;28;20460;-67
2023/11/08 09:46:38;;;;;;;5.13;2.50;;;11.10;99.90;;;;;;5064318;28;20410;-67
2023/11/08 09:49:04;;;;;;;6.67;2.57;;;11.20;99.90;;;;;;5065838;28;20984;-68
2023/11/08 09:51:31;;;;;;;2.70;2.10;;;11.30;99.90;;;;;;5059010;28;20810;-68
2023/11/08 09:54:00;;;;;;;6.20;2.43;;;11.30;99.90;;;;;;5060953;28;20465;-67
2023/11/08 09:56:28;;;;;;;4.73;2.80;;;11.30;99.90;;;;;;5061272;28;20505;-67
2023/11/08 09:58:54;;;;;;;5.40;2.47;;;11.40;99.90;;;;;;5065528;28;20436;-67
2023/11/08 10:01:21;;;;;;;6.13;2.53;;;11.50;99.90;;;;;;5062523;28;20410;-69
2023/11/08 10:03:46;;;;;;;6.30;2.70;;;11.60;99.90;;;;;;5061540;28;20451;-68
2023/11/08 10:06:12;;;;;;;7.70;2.07;;;11.60;99.90;;;;;;5056894;28;20413;-68
2023/11/08 10:08:38;;;;;;;4.43;2.50;;;11.50;99.90;;;;;;5062528;28;20581;-67
2023/11/08 10:11:10;;;;;;;3.23;2.40;;;11.50;99.90;;;;;;5063266;28;20203;-67
2023/11/08 10:13:48;;;;;;;4.40;2.67;;;11.50;99.90;;;;;;5062739;28;20449;-68
2023/11/08 10:16:18;;;;;;;4.40;2.37;;;11.70;99.90;;;;;;5059282;28;20456;-68
2023/11/08 10:18:56;;;;;;;3.40;2.60;;;11.80;99.90;;;;;;5061090;28;20405;-67
2023/11/08 10:21:24;;;;;;;4.43;2.20;;;12.00;99.90;;;;;;5061396;28;20474;-67
2023/11/08 10:23:52;;;;;;;4.67;2.20;;;12.10;99.90;;;;;;5062207;28;20496;-67
2023/11/08 10:26:19;;;;;;;5.97;2.60;;;12.20;99.90;;;;;;5061825;28;20421;-68
2023/11/08 10:29:02;;;;;;;5.57;2.00;;;12.30;99.90;;;;;;5060758;28;20472;-68
2023/11/08 10:31:45;;;;;;;7.53;2.30;;;12.40;99.90;;;;;;5059124;28;20414;-67
2023/11/08 10:34:12;;;;;;;5.03;2.53;;;12.40;99.90;;;;;;5061438;28;21028;-67
2023/11/08 10:36:39;;;;;;;3.13;1.90;;;12.40;99.90;;;;;;5060873;28;20470;-67
2023/11/08 10:39:07;;;;;;;3.93;2.03;;;12.50;99.90;;;;;;5061517;28;20414;-67
2023/11/08 10:41:35;;;;;;;5.40;2.07;;;12.70;99.90;;;;;;5060688;28;20939;-67
2023/11/08 10:44:06;;;;;;;3.30;2.00;;;12.70;99.90;;;;;;5055736;28;20550;-67
2023/11/08 10:46:32;;;;;;;6.00;2.73;;;12.70;99.90;;;;;;5056965;28;20428;-69
2023/11/08 10:48:59;;;;;;;3.33;2.30;;;12.80;99.90;;;;;;5058821;28;20415;-67
2023/11/08 10:51:25;;;;;;;6.40;1.87;;;12.80;99.90;;;;;;5062389;28;20420;-68
2023/11/08 10:53:51;;;;;;;3.73;1.97;;;12.80;99.90;;;;;;5057423;28;20501;-68
2023/11/08 10:56:20;;;;;;;2.80;1.70;;;12.90;99.90;;;;;;5058110;28;20547;-67
2023/11/08 10:58:47;;;;;;;2.30;1.70;;;12.90;99.90;;;;;;5065030;28;20183;-68
2023/11/08 11:01:13;;;;;;;3.00;1.50;;;13.00;99.90;;;;;;5061735;28;20907;-68
2023/11/08 11:03:42;;;;;;;6.50;1.53;;;13.00;99.90;;;;;;5060584;28;20469;-68
2023/11/08 11:06:08;;;;;;;2.20;1.40;;;13.00;99.90;;;;;;5057603;28;20482;-67
2023/11/08 11:08:40;;;;;;;2.63;1.70;;;12.90;99.90;;;;;;5053592;28;20508;-67
2023/11/08 11:11:08;;;;;;;2.13;1.53;;;13.00;99.90;;;;;;5052481;28;20636;-67
2023/11/08 11:13:59;;;;;;;4.53;2.00;;;12.90;99.90;;;;;;5054169;28;20865;-67
2023/11/08 11:16:29;;;;;;;4.87;2.43;;;12.80;99.90;;;;;;5053982;28;20436;-67
2023/11/08 11:19:01;;;;;;;3.70;1.90;;;12.80;99.90;;;;;;5054933;28;20546;-67
2023/11/08 11:21:37;;;;;;;4.80;2.00;;;12.80;99.90;;;;;;5052548;28;20429;-67
2023/11/08 11:24:32;;;;;;;6.23;2.20;;;13.00;99.90;;;;;;5051607;28;20582;-67
2023/11/08 11:26:58;;;;;;;3.40;2.30;;;13.20;99.90;;;;;;5059792;28;20512;-68
2023/11/08 11:29:26;;;;;;;3.43;2.20;;;13.30;99.90;;;;;;5058584;28;20423;-67
2023/11/08 11:31:52;;;;;;;2.53;1.60;;;13.20;99.90;;;;;;5063634;28;20421;-68
2023/11/08 11:34:20;;;;;;;4.23;1.70;;;13.30;99.90;;;;;;5054458;28;20476;-68
2023/11/08 11:37:13;;;;;;;2.87;1.57;;;13.30;99.90;;;;;;5061135;28;20199;-68
2023/11/08 11:39:51;;;;;;;1.90;1.43;;;13.40;99.90;;;;;;5060330;28;20473;-68
2023/11/08 11:42:22;;;;;;;2.60;1.50;;;13.40;99.90;;;;;;5060533;28;20495;-68
2023/11/08 11:44:53;;;;;;;2.30;1.37;;;13.50;99.90;;;;;;5064187;28;20433;-68
2023/11/08 11:47:22;;;;;;;2.47;1.50;;;13.60;99.90;;;;;;5059795;28;20536;-68
2023/11/08 11:49:51;;;;;;;2.20;1.63;;;13.90;99.90;;;;;;5055930;28;20963;-68
2023/11/08 11:52:21;;;;;;;2.60;1.67;;;14.00;99.90;;;;;;5062800;28;20413;-68
2023/11/08 11:54:52;;;;;;;3.27;1.40;;;14.20;99.90;;;;;;5059983;28;20500;-68
2023/11/08 11:57:19;;;;;;;2.00;1.60;;;14.30;99.90;;;;;;5062337;28;20452;-68
2023/11/08 11:59:50;;;;;;;4.63;1.67;;;14.40;99.90;;;;;;5062545;28;20468;-68
2023/11/08 12:02:17;;;;;;;2.70;1.67;;;14.50;99.90;;;;;;5062422;28;20827;-68
2023/11/08 12:04:44;;;;;;;2.00;1.50;;;14.70;99.90;;;;;;5061125;28;20437;-68
2023/11/08 12:07:11;;;;;;;4.47;1.70;;;15.00;99.90;;;;;;5062001;28;20515;-68
2023/11/08 12:09:38;;;;;;;3.10;1.90;;;15.60;99.90;;;;;;5061042;28;20469;-68
2023/11/08 12:12:05;;;;;;;2.30;1.57;;;15.80;99.90;;;;;;5059204;28;20429;-68
2023/11/08 12:14:30;;;;;;;4.10;2.17;;;16.30;99.90;;;;;;5061294;28;20453;-68
2023/11/08 12:16:56;;;;;;;2.33;1.70;;;16.40;99.90;;;;;;5063498;28;20445;-68
2023/11/08 12:19:22;;;;;;;2.90;1.80;;;16.20;99.90;;;;;;5060680;28;20183;-68
2023/11/08 12:21:47;;;;;;;4.33;1.83;;;15.70;99.90;;;;;;5064191;28;20191;-68
2023/11/08 12:24:14;;;;;;;6.07;2.83;;;15.30;99.90;;;;;;5055856;28;20200;-68
2023/11/08 12:26:40;;;;;;;4.83;1.97;;;15.00;99.90;;;;;;5059357;28;20596;-68
2023/11/08 12:29:06;;;;;;;3.80;2.07;;;14.80;99.90;;;;;;5063240;28;20425;-68
2023/11/08 12:31:34;;;;;;;2.53;1.73;;;14.70;99.90;;;;;;5060776;28;20801;-68
2023/11/08 12:34:00;;;;;;;2.47;1.73;;;14.60;99.90;;;;;;5062802;28;20469;-68
2023/11/08 12:36:26;;;;;;;2.60;1.80;;;14.70;99.90;;;;;;5059402;28;21144;-68
2023/11/08 12:38:51;;;;;;;4.13;2.07;;;15.70;99.90;;;;;;5060085;28;20180;-68
2023/11/08 12:41:17;;;;;;;4.37;1.90;;;16.60;99.90;;;;;;5062751;28;20265;-68
2023/11/08 12:43:58;;;;;;;3.33;2.03;;;17.10;99.90;;;;;;5065065;28;20557;-68
2023/11/08 12:46:24;;;;;;;2.80;1.80;;;17.20;99.90;;;;;;5067017;28;20448;-68
2023/11/08 12:48:57;;;;;;;4.10;1.87;;;17.20;99.90;;;;;;5064560;28;20534;-69